Time;durP1;ratioP1;P1;durP2;ratioP2;P2;SDS_P1;SDS_P2;PMS_P1;PMS_P2;Temp;Humidity;BMP_temperature;BMP_pressure;BME280_temperature;BME280_humidity;BME280_pressure;Samples;Min_cycle;Max_cycle;Signal;HPM_P1;HPM_P2
2021/06/11 00:00:57;;;;;;;2.73;1.30;;;;;;;19.20;74.53;101283.22;5035266;28;20513;-66
2021/06/11 00:03:23;;;;;;;1.40;1.30;;;;;;;19.20;74.62;101285.97;5035264;28;20439;-67
2021/06/11 00:05:49;;;;;;;2.03;1.83;;;;;;;19.23;74.58;101288.03;5034888;28;20868;-66
2021/06/11 00:08:15;;;;;;;1.40;1.30;;;;;;;19.22;74.65;101286.44;5035188;28;20471;-66
2021/06/11 00:10:41;;;;;;;1.00;1.00;;;;;;;19.19;74.59;101289.84;5035052;28;20459;-66
2021/06/11 00:13:07;;;;;;;1.87;1.20;;;;;;;19.17;75.03;101294.91;5035142;28;20855;-67
2021/06/11 00:15:34;;;;;;;3.53;1.70;;;;;;;19.17;75.53;101286.66;5034311;28;20439;-67
2021/06/11 00:18:00;;;;;;;2.80;1.80;;;;;;;19.19;74.76;101292.59;5034564;28;20479;-67
2021/06/11 00:20:27;;;;;;;1.83;1.57;;;;;;;19.13;75.70;101293.97;5034535;28;21097;-67
2021/06/11 00:22:53;;;;;;;1.20;1.10;;;;;;;19.13;76.10;101288.50;5034883;28;20447;-66
2021/06/11 00:25:22;;;;;;;2.57;1.77;;;;;;;19.09;76.14;101293.84;5034478;28;21000;-67
2021/06/11 00:27:48;;;;;;;1.83;1.73;;;;;;;19.09;75.27;101290.31;5034448;28;20537;-67
2021/06/11 00:30:15;;;;;;;2.50;1.80;;;;;;;19.10;74.56;101283.66;5034314;28;20450;-67
2021/06/11 00:32:43;;;;;;;1.80;1.60;;;;;;;19.07;74.78;101284.34;5038597;28;20493;-67
2021/06/11 00:35:10;;;;;;;1.47;1.37;;;;;;;19.02;75.03;101281.81;5074092;28;20851;-67
2021/06/11 00:37:36;;;;;;;1.70;1.50;;;;;;;18.98;75.60;101278.16;5074337;28;20489;-67
2021/06/11 00:40:05;;;;;;;1.70;1.37;;;;;;;18.96;75.73;101278.50;5074206;28;20445;-66
2021/06/11 00:42:32;;;;;;;2.20;2.00;;;;;;;18.92;75.65;101282.28;5074235;28;20440;-67
2021/06/11 00:44:59;;;;;;;1.50;1.40;;;;;;;18.84;76.29;101279.28;5074245;28;20515;-66
2021/06/11 00:47:25;;;;;;;1.63;1.40;;;;;;;18.82;77.34;101284.31;5074140;28;20442;-67
2021/06/11 00:49:52;;;;;;;1.70;1.60;;;;;;;18.74;77.25;101284.41;5073655;28;20499;-66
2021/06/11 00:52:18;;;;;;;2.63;2.20;;;;;;;18.68;77.12;101281.03;5053587;28;21013;-67
2021/06/11 00:54:45;;;;;;;1.60;1.50;;;;;;;18.71;77.44;101288.63;5054082;28;20864;-66
2021/06/11 00:57:12;;;;;;;2.20;2.00;;;;;;;18.67;77.52;101285.72;5053879;28;20489;-66
2021/06/11 00:59:40;;;;;;;2.13;1.63;;;;;;;18.63;78.14;101278.50;5053987;28;20492;-66
2021/06/11 01:02:06;;;;;;;1.90;1.70;;;;;;;18.63;78.04;101281.25;5053795;28;20465;-66
2021/06/11 01:04:32;;;;;;;4.17;1.40;;;;;;;18.60;77.93;101273.72;5053758;28;20450;-66
2021/06/11 01:07:01;;;;;;;2.30;1.97;;;;;;;18.61;78.70;101280.78;5053773;28;20603;-67
2021/06/11 01:09:28;;;;;;;2.60;1.97;;;;;;;18.58;78.55;101279.50;5054013;28;20457;-66
2021/06/11 01:11:55;;;;;;;1.60;1.50;;;;;;;18.59;78.45;101286.63;5053500;28;20975;-66
2021/06/11 01:14:21;;;;;;;2.80;2.30;;;;;;;18.59;78.85;101283.06;5053462;28;20458;-66
2021/06/11 01:16:47;;;;;;;2.53;1.97;;;;;;;18.60;78.67;101279.19;5053468;28;20513;-66
2021/06/11 01:19:14;;;;;;;2.10;1.90;;;;;;;18.61;78.46;101283.53;5053608;28;20500;-67
2021/06/11 01:21:46;;;;;;;2.10;1.73;;;;;;;18.57;78.62;101277.13;5053201;28;20971;-66
2021/06/11 01:24:16;;;;;;;2.27;2.00;;;;;;;18.55;78.94;101277.47;5053513;28;20434;-66
2021/06/11 01:26:47;;;;;;;1.97;1.77;;;;;;;18.55;78.60;101280.22;5052523;28;20820;-69
2021/06/11 01:29:16;;;;;;;1.50;1.40;;;;;;;18.57;79.12;101277.13;5053479;28;20434;-69
2021/06/11 01:31:45;;;;;;;2.67;2.13;;;;;;;18.56;78.66;101281.81;5053118;28;20454;-69
2021/06/11 01:34:15;;;;;;;1.93;1.40;;;;;;;18.56;79.00;101272.78;5053107;28;20438;-69
2021/06/11 01:36:46;;;;;;;1.97;1.83;;;;;;;18.55;79.12;101279.38;5053510;28;20868;-69
2021/06/11 01:39:15;;;;;;;3.77;2.30;;;;;;;18.53;79.28;101281.69;5073294;28;20426;-68
2021/06/11 01:41:42;;;;;;;2.33;2.13;;;;;;;18.55;79.33;101276.63;5072618;28;20474;-70
2021/06/11 01:44:12;;;;;;;2.00;1.80;;;;;;;18.53;79.37;101270.69;5073174;28;20434;-69
2021/06/11 01:46:40;;;;;;;2.50;2.07;;;;;;;18.50;79.75;101271.38;5073168;28;20445;-69
2021/06/11 01:49:07;;;;;;;3.03;2.30;;;;;;;18.51;79.64;101268.31;5072909;28;20797;-70
2021/06/11 01:51:35;;;;;;;3.93;1.80;;;;;;;18.51;79.83;101273.00;5058390;28;20462;-68
2021/06/11 01:54:03;;;;;;;1.90;1.80;;;;;;;18.48;80.32;101268.16;5053081;28;20446;-69
2021/06/11 01:56:31;;;;;;;2.70;2.50;;;;;;;18.48;80.00;101271.72;5052903;28;20446;-68
2021/06/11 01:58:57;;;;;;;2.17;1.97;;;;;;;18.49;80.05;101269.78;5053037;28;20492;-67
2021/06/11 02:01:25;;;;;;;2.00;1.90;;;;;;;18.46;80.49;101264.94;5052907;28;20462;-69
2021/06/11 02:03:53;;;;;;;2.37;1.97;;;;;;;18.47;80.74;101269.31;5052942;28;20446;-69
2021/06/11 02:06:21;;;;;;;2.47;1.97;;;;;;;18.46;81.05;101267.69;5061540;28;20457;-69
2021/06/11 02:08:50;;;;;;;1.73;1.60;;;;;;;18.37;81.03;101271.34;5072914;28;20499;-69
2021/06/11 02:11:16;;;;;;;2.50;1.93;;;;;;;18.39;80.82;101266.31;5072784;28;20461;-68
2021/06/11 02:13:43;;;;;;;3.07;1.93;;;;;;;18.39;80.60;101266.31;5072949;28;20438;-69
2021/06/11 02:16:10;;;;;;;2.07;1.87;;;;;;;18.43;80.82;101271.13;5072597;28;20938;-68
2021/06/11 02:18:38;;;;;;;2.40;1.97;;;;;;;18.42;80.74;101270.34;5072482;28;20485;-69
2021/06/11 02:21:06;;;;;;;3.17;2.30;;;;;;;18.39;80.81;101271.00;5072501;28;20465;-69
2021/06/11 02:23:34;;;;;;;2.00;1.67;;;;;;;18.41;81.21;101274.19;5072602;28;20942;-69
2021/06/11 02:26:00;;;;;;;4.20;2.63;;;;;;;18.43;81.31;101271.13;5072568;28;20954;-69
2021/06/11 02:28:26;;;;;;;1.80;1.70;;;;;;;18.44;81.21;101268.03;5073183;28;20442;-69
2021/06/11 02:30:52;;;;;;;4.47;2.97;;;;;;;18.44;80.70;101269.97;5072567;28;20509;-69
2021/06/11 02:33:19;;;;;;;2.33;2.00;;;;;;;18.43;80.84;101271.13;5072841;28;20464;-69
2021/06/11 02:35:46;;;;;;;2.23;2.00;;;;;;;18.42;81.40;101273.06;5072923;28;20445;-70
2021/06/11 02:38:12;;;;;;;2.20;2.00;;;;;;;18.39;81.65;101271.78;5075415;28;20531;-66
2021/06/11 02:40:38;;;;;;;2.33;2.13;;;;;;;18.39;81.69;101268.25;5077722;28;20480;-66
2021/06/11 02:43:07;;;;;;;3.50;2.40;;;;;;;18.36;81.99;101274.41;5076624;28;20422;-67
2021/06/11 02:45:40;;;;;;;2.53;2.33;;;;;;;18.40;82.14;101272.59;5076606;28;20445;-67
2021/06/11 02:48:15;;;;;;;2.30;2.07;;;;;;;18.40;82.09;101273.38;5076532;28;20483;-68
2021/06/11 02:50:50;;;;;;;2.63;2.13;;;;;;;18.40;81.80;101275.34;5068907;28;21017;-66
2021/06/11 02:53:25;;;;;;;2.93;2.50;;;;;;;18.38;82.36;101269.41;5057640;28;20422;-68
2021/06/11 02:55:52;;;;;;;4.03;2.27;;;;;;;18.33;82.67;101278.63;5056545;28;20844;-68
2021/06/11 02:58:21;;;;;;;2.47;1.73;;;;;;;18.32;82.69;101279.75;5056315;28;20482;-68
2021/06/11 03:00:48;;;;;;;3.03;2.10;;;;;;;18.34;82.54;101268.47;5056308;28;20840;-69
2021/06/11 03:03:18;;;;;;;2.10;1.90;;;;;;;18.35;82.87;101272.81;5056341;28;20446;-66
2021/06/11 03:05:46;;;;;;;1.87;1.60;;;;;;;18.32;83.09;101270.72;5056343;28;20438;-67
2021/06/11 03:08:18;;;;;;;3.20;2.27;;;;;;;18.31;82.75;101275.41;5056263;28;20445;-65
2021/06/11 03:10:50;;;;;;;2.43;2.20;;;;;;;18.30;82.53;101284.78;5056209;28;20576;-67
2021/06/11 03:13:18;;;;;;;2.10;1.90;;;;;;;18.33;82.64;101283.31;5056197;28;20434;-66
2021/06/11 03:15:45;;;;;;;3.17;2.63;;;;;;;18.31;82.46;101283.66;5056126;28;20438;-66
2021/06/11 03:18:23;;;;;;;2.03;1.83;;;;;;;18.35;83.13;101292.00;5055951;28;20546;-65
2021/06/11 03:20:51;;;;;;;2.60;2.00;;;;;;;18.36;82.60;101293.59;5055937;28;20469;-66
2021/06/11 03:23:23;;;;;;;4.10;2.43;;;;;;;18.37;82.50;101279.56;5055926;28;20454;-67
2021/06/11 03:25:52;;;;;;;4.67;2.60;;;;;;;18.34;82.78;101285.72;5055679;28;20805;-67
2021/06/11 03:28:21;;;;;;;2.47;2.23;;;;;;;18.32;83.10;101293.47;5055951;28;20442;-67
2021/06/11 03:30:52;;;;;;;2.13;1.93;;;;;;;18.31;83.30;101297.34;5055748;28;20450;-67
2021/06/11 03:33:20;;;;;;;4.47;3.30;;;;;;;18.32;83.33;101287.97;5055805;28;20807;-67
2021/06/11 03:35:51;;;;;;;3.53;2.23;;;;;;;18.31;83.53;101291.88;5055732;28;20454;-67
2021/06/11 03:38:25;;;;;;;3.20;2.43;;;;;;;18.31;84.05;101291.88;5055644;28;20466;-67
2021/06/11 03:40:52;;;;;;;3.07;2.57;;;;;;;18.30;84.46;101290.28;5055558;28;20496;-66
2021/06/11 03:43:19;;;;;;;2.50;2.30;;;;;;;18.32;83.59;101285.25;5055562;28;20505;-67
2021/06/11 03:45:46;;;;;;;2.13;1.87;;;;;;;18.28;83.62;101295.31;5055497;28;20563;-67
2021/06/11 03:48:15;;;;;;;2.20;1.87;;;;;;;18.28;83.52;101294.47;5055021;28;20442;-66
2021/06/11 03:50:43;;;;;;;2.67;1.80;;;;;;;18.29;83.82;101294.16;5047626;28;20463;-65
2021/06/11 03:53:10;;;;;;;2.60;2.27;;;;;;;18.29;83.81;101287.88;5035395;28;20447;-65
2021/06/11 03:55:44;;;;;;;5.20;2.00;;;;;;;18.29;84.01;101283.19;5035421;28;20443;-66
2021/06/11 03:58:13;;;;;;;4.10;2.97;;;;;;;18.21;84.43;101280.53;5040349;28;20484;-65
2021/06/11 04:00:43;;;;;;;2.53;2.10;;;;;;;18.17;84.47;101285.88;5053894;28;20469;-67
2021/06/11 04:03:09;;;;;;;2.97;2.30;;;;;;;18.26;84.14;101283.84;5055220;28;20449;-66
2021/06/11 04:05:36;;;;;;;3.50;2.33;;;;;;;18.27;81.78;101285.44;5045487;28;20462;-65
2021/06/11 04:08:06;;;;;;;3.13;2.50;;;;;;;18.27;79.55;101282.72;5035199;28;20443;-67
2021/06/11 04:10:35;;;;;;;3.70;2.30;;;;;;;18.19;79.31;101286.31;5035116;28;20459;-66
2021/06/11 04:13:12;;;;;;;3.37;2.40;;;;;;;18.20;80.38;101276.97;5035096;28;20442;-67
2021/06/11 04:15:41;;;;;;;2.30;1.97;;;;;;;18.19;82.16;101280.03;5035259;28;20431;-65
2021/06/11 04:18:11;;;;;;;2.30;1.73;;;;;;;18.21;83.23;101270.34;5047382;28;20489;-67
2021/06/11 04:20:39;;;;;;;2.83;2.63;;;;;;;18.21;84.20;101277.78;5054868;28;20524;-66
2021/06/11 04:23:07;;;;;;;2.40;2.20;;;;;;;18.21;84.80;101275.03;5054997;28;20458;-67
2021/06/11 04:25:35;;;;;;;2.40;1.97;;;;;;;18.22;84.76;101276.63;5054616;28;20452;-66
2021/06/11 04:28:04;;;;;;;3.17;2.50;;;;;;;18.26;85.07;101272.88;5054473;28;20951;-67
2021/06/11 04:30:31;;;;;;;2.47;1.87;;;;;;;18.31;85.80;101267.19;5054679;28;20492;-67
2021/06/11 04:32:57;;;;;;;2.70;2.20;;;;;;;18.36;86.14;101271.66;5049907;28;20446;-66
2021/06/11 04:35:24;;;;;;;2.60;2.40;;;;;;;18.40;85.90;101272.59;5054108;28;20533;-66
2021/06/11 04:37:50;;;;;;;3.27;2.27;;;;;;;18.46;86.00;101270.44;5054274;28;20514;-67
2021/06/11 04:40:17;;;;;;;2.07;1.93;;;;;;;18.50;85.96;101265.88;5047811;28;20848;-70
2021/06/11 04:42:43;;;;;;;3.00;2.70;;;;;;;18.54;86.48;101273.09;5050823;28;20438;-70
2021/06/11 04:45:11;;;;;;;2.27;2.07;;;;;;;18.60;85.95;101276.44;5034484;28;20525;-69
2021/06/11 04:47:37;;;;;;;3.53;2.70;;;;;;;18.65;85.52;101268.81;5042570;28;20465;-69
2021/06/11 04:50:04;;;;;;;3.37;2.70;;;;;;;18.70;84.87;101273.31;5053889;28;20944;-70
2021/06/11 04:52:30;;;;;;;2.47;2.27;;;;;;;18.75;83.97;101273.09;5054240;28;20438;-70
2021/06/11 04:54:56;;;;;;;3.30;2.00;;;;;;;18.85;83.13;101278.13;5054252;28;20495;-69
2021/06/11 04:57:22;;;;;;;3.80;2.30;;;;;;;18.96;82.23;101272.22;5054032;28;20486;-70
2021/06/11 04:59:48;;;;;;;3.57;2.90;;;;;;;19.00;82.36;101273.13;5054058;28;20529;-70
2021/06/11 05:02:15;;;;;;;2.87;2.57;;;;;;;19.02;81.66;101276.34;5053909;28;20462;-69
2021/06/11 05:04:41;;;;;;;2.80;2.47;;;;;;;19.14;81.04;101277.16;5053927;28;20450;-69
2021/06/11 05:07:07;;;;;;;7.13;2.63;;;;;;;19.29;81.16;101278.41;5053862;28;20813;-69
2021/06/11 05:09:33;;;;;;;3.80;3.00;;;;;;;19.41;81.04;101272.13;5047044;28;20799;-69
2021/06/11 05:11:59;;;;;;;2.47;2.27;;;;;;;19.50;80.28;101269.25;5033713;28;20471;-68
2021/06/11 05:14:25;;;;;;;3.43;2.70;;;;;;;19.60;80.20;101274.28;5033600;28;20814;-68
2021/06/11 05:16:51;;;;;;;3.10;2.80;;;;;;;19.65;82.38;101271.31;5048135;28;20943;-68
2021/06/11 05:19:18;;;;;;;2.07;1.87;;;;;;;19.77;81.68;101274.06;5053695;28;20524;-68
2021/06/11 05:21:45;;;;;;;5.10;3.10;;;;;;;19.86;81.75;101276.69;5052593;28;20479;-69
2021/06/11 05:24:11;;;;;;;3.30;2.53;;;;;;;20.02;81.68;101272.06;5050864;28;20447;-68
2021/06/11 05:26:37;;;;;;;4.30;2.97;;;;;;;20.18;81.59;101272.09;5053530;28;20442;-68
2021/06/11 05:29:03;;;;;;;5.93;3.10;;;;;;;20.33;79.65;101265.88;5052070;28;20809;-68
2021/06/11 05:31:29;;;;;;;5.33;2.50;;;;;;;20.52;78.50;101264.44;5052766;28;20565;-68
2021/06/11 05:33:55;;;;;;;2.83;2.53;;;;;;;20.72;78.84;101265.34;5053081;28;20458;-68
2021/06/11 05:36:22;;;;;;;3.13;2.70;;;;;;;20.88;77.87;101266.97;5049131;28;20473;-69
2021/06/11 05:38:48;;;;;;;3.77;2.60;;;;;;;21.03;73.44;101261.81;5053231;28;20478;-71
2021/06/11 05:41:14;;;;;;;1.70;1.60;;;;;;;21.16;71.90;101271.59;5053325;28;20540;-71
2021/06/11 05:43:40;;;;;;;1.70;1.53;;;;;;;21.30;70.60;101265.66;5053553;28;20446;-71
2021/06/11 05:46:06;;;;;;;1.90;1.70;;;;;;;21.39;68.81;101275.34;5052243;28;20955;-71
2021/06/11 05:48:32;;;;;;;2.50;2.00;;;;;;;21.46;68.93;101268.41;5048492;28;21015;-70
2021/06/11 05:50:58;;;;;;;2.30;2.10;;;;;;;21.55;67.50;101274.53;5036387;28;20512;-70
2021/06/11 05:53:25;;;;;;;3.20;2.13;;;;;;;21.59;66.23;101259.66;5040679;28;20455;-73
2021/06/11 05:55:52;;;;;;;2.00;1.80;;;;;;;21.72;65.06;101270.56;5038668;28;20446;-73
2021/06/11 05:58:18;;;;;;;4.50;2.37;;;;;;;21.84;64.77;101265.72;5053076;28;20482;-69
2021/06/11 06:00:44;;;;;;;1.70;1.60;;;;;;;21.95;65.25;101263.19;5052405;28;20469;-70
2021/06/11 06:03:10;;;;;;;2.37;1.70;;;;;;;22.07;68.71;101268.56;5052986;28;20529;-67
2021/06/11 06:05:36;;;;;;;1.87;1.50;;;;;;;22.14;65.93;101262.44;5052894;28;20454;-70
2021/06/11 06:08:03;;;;;;;1.97;1.60;;;;;;;22.21;64.31;101248.78;5033383;28;20562;-69
2021/06/11 06:10:30;;;;;;;1.70;1.60;;;;;;;22.29;64.94;101256.03;5039059;28;20458;-70
2021/06/11 06:12:56;;;;;;;1.63;1.43;;;;;;;22.35;65.26;101254.56;5057590;28;20445;-69
2021/06/11 06:15:22;;;;;;;1.97;1.77;;;;;;;22.40;63.43;101253.47;5059353;28;20532;-69
2021/06/11 06:17:48;;;;;;;2.20;1.37;;;;;;;22.40;62.91;101254.31;5060292;28;20898;-69
2021/06/11 06:20:15;;;;;;;2.17;1.93;;;;;;;22.52;60.96;101249.75;5059611;28;20442;-69
2021/06/11 06:22:42;;;;;;;2.50;2.00;;;;;;;22.60;61.68;101248.75;5054137;28;20449;-72
2021/06/11 06:25:10;;;;;;;2.47;2.23;;;;;;;22.70;60.42;101253.66;5055318;28;20786;-69
2021/06/11 06:27:39;;;;;;;2.40;1.83;;;;;;;22.75;61.26;101253.34;5051518;28;20821;-67
2021/06/11 06:30:07;;;;;;;2.43;2.00;;;;;;;22.79;62.00;101247.88;5053645;28;20438;-69
2021/06/11 06:32:33;;;;;;;3.17;2.40;;;;;;;22.83;61.15;101241.25;5058099;28;20442;-69
2021/06/11 06:34:59;;;;;;;2.30;1.90;;;;;;;22.86;61.76;101246.06;5059176;28;20446;-70
2021/06/11 06:37:27;;;;;;;1.83;1.63;;;;;;;22.87;59.16;101253.16;5048833;28;20538;-69
2021/06/11 06:39:53;;;;;;;2.47;2.27;;;;;;;22.92;59.57;101244.59;5039630;28;20451;-69
2021/06/11 06:42:19;;;;;;;5.80;1.80;;;;;;;23.01;59.54;101249.06;5046842;28;20543;-68
2021/06/11 06:44:47;;;;;;;3.20;2.23;;;;;;;23.09;58.44;101257.13;5059270;28;20442;-69
2021/06/11 06:47:13;;;;;;;5.00;2.17;;;;;;;23.16;57.77;101264.75;5059600;28;20473;-69
2021/06/11 06:49:39;;;;;;;4.20;2.80;;;;;;;23.11;57.75;101259.53;5049467;28;20450;-69
2021/06/11 06:52:06;;;;;;;2.27;2.00;;;;;;;23.09;59.12;101259.09;5039397;28;20462;-69
2021/06/11 06:54:33;;;;;;;2.40;2.20;;;;;;;23.16;59.68;101256.44;5049469;28;20510;-70
2021/06/11 06:56:59;;;;;;;2.70;2.30;;;;;;;23.20;58.90;101256.47;5058050;28;20460;-69
2021/06/11 06:59:25;;;;;;;2.30;1.83;;;;;;;23.23;58.64;101264.84;5059038;28;20434;-67
2021/06/11 07:01:56;;;;;;;2.73;2.00;;;;;;;23.19;57.47;101257.66;5047917;28;20470;-66
2021/06/11 07:04:23;;;;;;;2.40;2.00;;;;;;;23.33;58.31;101264.22;5039102;28;20909;-67
2021/06/11 07:06:50;;;;;;;2.00;1.70;;;;;;;23.45;58.90;101251.34;5039428;28;20496;-67
2021/06/11 07:09:16;;;;;;;1.63;1.53;;;;;;;23.57;58.19;101254.69;5039347;28;20474;-67
2021/06/11 07:11:42;;;;;;;3.30;2.50;;;;;;;23.71;57.87;101250.56;5041464;28;20992;-67
2021/06/11 07:14:08;;;;;;;3.30;2.47;;;;;;;23.76;58.07;101247.47;5050564;28;20474;-67
2021/06/11 07:16:34;;;;;;;3.67;2.60;;;;;;;23.91;57.42;101247.28;5057294;28;20458;-67
2021/06/11 07:19:02;;;;;;;3.17;2.30;;;;;;;24.06;55.50;101247.47;5058240;28;20568;-67
2021/06/11 07:21:29;;;;;;;3.00;2.50;;;;;;;24.12;55.67;101251.47;5057863;28;20465;-65
2021/06/11 07:23:55;;;;;;;2.53;1.90;;;;;;;24.17;56.33;101253.91;5054976;28;20438;-66
2021/06/11 07:26:21;;;;;;;2.87;2.13;;;;;;;24.20;57.85;101244.06;5055012;28;20470;-66
2021/06/11 07:28:47;;;;;;;2.53;2.30;;;;;;;24.19;59.14;101253.53;5056110;28;20504;-67
2021/06/11 07:31:13;;;;;;;2.80;2.00;;;;;;;24.23;60.29;101248.84;5054528;28;20466;-67
2021/06/11 07:33:39;;;;;;;3.23;2.27;;;;;;;24.17;54.93;101249.19;5049482;28;20446;-67
2021/06/11 07:36:07;;;;;;;2.37;2.13;;;;;;;24.15;55.62;101253.50;5046203;28;20493;-67
2021/06/11 07:38:33;;;;;;;2.33;2.13;;;;;;;24.09;55.37;101249.47;5035681;28;20899;-67
2021/06/11 07:40:59;;;;;;;2.50;2.10;;;;;;;24.07;55.39;101254.59;5051462;28;20478;-66
2021/06/11 07:43:26;;;;;;;2.00;1.80;;;;;;;24.12;56.16;101257.00;5055899;28;20442;-67
2021/06/11 07:45:53;;;;;;;3.00;1.60;;;;;;;24.14;58.24;101258.25;5055076;28;21080;-67
2021/06/11 07:48:20;;;;;;;2.80;1.70;;;;;;;24.20;56.36;101253.16;5055457;28;20959;-66
2021/06/11 07:50:46;;;;;;;1.93;1.73;;;;;;;24.25;57.20;101250.06;5054809;28;20466;-66
2021/06/11 07:53:13;;;;;;;6.40;2.50;;;;;;;24.21;56.63;101249.22;5053073;28;20474;-67
2021/06/11 07:55:40;;;;;;;2.63;2.40;;;;;;;24.06;55.02;101247.47;5035607;28;20971;-67
2021/06/11 07:58:06;;;;;;;2.60;2.23;;;;;;;24.08;55.17;101245.09;5041541;28;20551;-68
2021/06/11 08:00:32;;;;;;;4.07;2.00;;;;;;;24.10;55.97;101240.00;5054821;28;20834;-70
2021/06/11 08:02:59;;;;;;;2.97;2.17;;;;;;;24.17;57.79;101240.06;5051531;28;20451;-66
2021/06/11 08:05:26;;;;;;;4.13;1.80;;;;;;;24.22;55.24;101236.97;5035148;28;20998;-67
2021/06/11 08:07:52;;;;;;;3.70;2.53;;;;;;;24.35;55.49;101252.16;5035507;28;20439;-67
2021/06/11 08:10:19;;;;;;;2.77;2.23;;;;;;;24.47;53.07;101253.09;5035082;28;20513;-67
2021/06/11 08:12:46;;;;;;;3.63;2.17;;;;;;;24.46;52.94;101251.50;5034797;28;20948;-67
2021/06/11 08:15:13;;;;;;;1.80;1.63;;;;;;;24.41;54.97;101247.91;5035243;28;20454;-67
2021/06/11 08:17:39;;;;;;;2.67;2.00;;;;;;;24.40;56.26;101246.31;5037964;28;21050;-67
2021/06/11 08:20:06;;;;;;;2.40;2.10;;;;;;;24.45;55.21;101244.38;5054494;28;20446;-68
2021/06/11 08:22:32;;;;;;;2.20;2.00;;;;;;;24.57;55.67;101244.91;5044003;28;20443;-67
2021/06/11 08:24:58;;;;;;;2.53;2.33;;;;;;;24.66;55.16;101233.50;5034620;28;20518;-66
2021/06/11 08:27:26;;;;;;;2.33;2.00;;;;;;;24.69;53.91;101249.34;5051551;28;20434;-68
2021/06/11 08:29:52;;;;;;;2.10;1.80;;;;;;;24.71;54.15;101247.00;5054855;28;20446;-67
2021/06/11 08:32:18;;;;;;;3.60;2.63;;;;;;;24.72;53.20;101259.69;5054412;28;20469;-67
2021/06/11 08:34:44;;;;;;;1.60;1.50;;;;;;;24.81;52.46;101243.53;5053544;28;20564;-68
2021/06/11 08:37:10;;;;;;;2.77;2.47;;;;;;;24.89;51.90;101249.94;5053439;28;20442;-67
2021/06/11 08:39:37;;;;;;;2.20;1.80;;;;;;;24.90;53.00;101246.78;5049752;28;20446;-66
2021/06/11 08:42:06;;;;;;;2.67;2.43;;;;;;;24.91;51.30;101244.81;5066332;22;20525;-66
2021/06/11 08:44:35;;;;;;;2.53;2.00;;;;;;;24.96;52.51;101251.97;5034189;28;20933;-65
2021/06/11 08:47:01;;;;;;;2.57;2.37;;;;;;;25.04;50.36;101243.31;5034330;28;20500;-65
2021/06/11 08:49:27;;;;;;;2.60;2.17;;;;;;;25.10;50.53;101246.56;5034168;28;20464;-65
2021/06/11 08:51:55;;;;;;;4.13;2.73;;;;;;;25.17;51.45;101247.44;5034223;28;20471;-65
2021/06/11 08:54:21;;;;;;;1.60;1.50;;;;;;;25.19;50.58;101254.56;5034068;28;20550;-66
2021/06/11 08:56:49;;;;;;;2.13;1.93;;;;;;;25.29;50.01;101249.09;5034176;28;20439;-66
2021/06/11 08:59:15;;;;;;;2.60;2.40;;;;;;;25.33;50.64;101249.13;5034163;28;20581;-65
2021/06/11 09:01:43;;;;;;;2.13;1.93;;;;;;;25.56;49.94;101249.69;5034197;28;20463;-65
2021/06/11 09:04:09;;;;;;;2.23;1.87;;;;;;;25.75;48.36;101258.88;5034205;28;20450;-65
2021/06/11 09:06:35;;;;;;;3.70;2.33;;;;;;;25.73;47.82;101250.97;5034193;28;20443;-65
2021/06/11 09:09:02;;;;;;;2.40;2.00;;;;;;;25.85;47.79;101247.06;5034176;28;20439;-65
2021/06/11 09:11:30;;;;;;;2.57;1.90;;;;;;;25.84;47.38;101253.81;5034036;28;20470;-65
2021/06/11 09:14:02;;;;;;;4.23;2.70;;;;;;;25.89;47.54;101247.88;5034166;28;20538;-65
2021/06/11 09:16:28;;;;;;;1.90;1.67;;;;;;;25.91;47.28;101253.84;5034006;28;20423;-65
2021/06/11 09:18:58;;;;;;;2.73;2.17;;;;;;;25.96;46.68;101256.25;5033964;28;20552;-65
2021/06/11 09:21:31;;;;;;;1.63;1.40;;;;;;;26.03;46.36;101255.47;5033933;28;20509;-65
2021/06/11 09:24:21;;;;;;;3.00;1.93;;;;;;;26.09;45.87;101251.16;5034180;28;20438;-65
2021/06/11 09:27:07;;;;;;;1.63;1.50;;;;;;;26.08;45.98;101244.81;5033956;28;20853;-65
2021/06/11 09:29:35;;;;;;;2.40;1.60;;;;;;;26.03;48.89;101252.69;5033981;28;20472;-65
2021/06/11 09:32:13;;;;;;;1.90;1.80;;;;;;;26.05;46.16;101253.91;5033699;28;20459;-65
2021/06/11 09:34:41;;;;;;;1.60;1.50;;;;;;;25.96;45.61;101261.00;5033739;28;20447;-65
2021/06/11 09:37:09;;;;;;;2.30;1.90;;;;;;;25.97;44.93;101255.06;5033692;28;20462;-65
2021/06/11 09:39:43;;;;;;;2.53;1.80;;;;;;;26.04;47.62;101243.19;5033590;28;20483;-66
2021/06/11 09:42:10;;;;;;;4.53;2.43;;;;;;;26.15;46.44;101252.34;5033348;28;20479;-65
2021/06/11 09:44:36;;;;;;;1.83;1.40;;;;;;;26.12;46.65;101244.81;5033599;28;20451;-65
2021/06/11 09:47:03;;;;;;;1.43;1.20;;;;;;;26.23;46.96;101248.41;5032568;28;20447;-65
2021/06/11 09:49:41;;;;;;;2.03;1.83;;;;;;;26.31;46.46;101244.47;5033489;28;20442;-65
2021/06/11 09:52:09;;;;;;;1.97;1.50;;;;;;;26.30;45.46;101240.13;5033380;28;20474;-63
2021/06/11 09:54:35;;;;;;;1.83;1.50;;;;;;;26.36;46.82;101243.28;5033429;28;20450;-65
2021/06/11 09:57:20;;;;;;;1.40;1.30;;;;;;;26.32;43.83;101237.72;5033440;28;20453;-65
2021/06/11 09:59:46;;;;;;;2.40;1.60;;;;;;;26.23;44.68;101251.19;5033418;28;20435;-65
2021/06/11 10:02:16;;;;;;;1.43;1.20;;;;;;;26.32;44.72;101237.72;5033392;28;20549;-65
2021/06/11 10:04:44;;;;;;;1.83;1.27;;;;;;;26.37;45.04;101248.44;5033504;28;20439;-65
2021/06/11 10:07:11;;;;;;;1.60;1.43;;;;;;;26.30;45.61;101251.22;5032860;28;20932;-65
2021/06/11 10:09:38;;;;;;;1.23;1.13;;;;;;;26.33;45.81;101247.63;5033181;28;20473;-65
2021/06/11 10:12:05;;;;;;;1.83;1.73;;;;;;;26.54;45.12;101244.16;5032972;28;20455;-65
2021/06/11 10:14:32;;;;;;;2.03;1.47;;;;;;;26.80;46.31;101251.34;5033351;28;20505;-65
2021/06/11 10:16:58;;;;;;;4.80;2.37;;;;;;;27.04;45.21;101254.50;5033174;28;20439;-65
2021/06/11 10:19:25;;;;;;;1.70;1.60;;;;;;;27.01;46.27;101246.97;5032961;28;20487;-65
2021/06/11 10:21:54;;;;;;;2.13;1.50;;;;;;;26.86;44.72;101244.19;5032912;28;20870;-65
2021/06/11 10:24:21;;;;;;;1.80;1.63;;;;;;;26.79;45.63;101241.41;5033109;28;20496;-66
2021/06/11 10:26:47;;;;;;;2.27;1.90;;;;;;;26.90;45.26;101244.97;5033048;28;20569;-64
2021/06/11 10:29:15;;;;;;;4.30;2.60;;;;;;;27.03;45.89;101241.81;5032859;28;20440;-64
2021/06/11 10:31:42;;;;;;;1.47;1.37;;;;;;;27.08;44.62;101236.63;5032713;28;20459;-65
2021/06/11 10:34:08;;;;;;;6.00;1.80;;;;;;;27.15;45.29;101241.44;5033252;28;20439;-65
2021/06/11 10:36:41;;;;;;;1.50;1.40;;;;;;;27.11;44.77;101241.44;5032906;28;20443;-65
2021/06/11 10:39:28;;;;;;;2.57;1.50;;;;;;;27.05;45.39;101239.41;5033232;28;20477;-65
2021/06/11 10:42:08;;;;;;;1.30;1.20;;;;;;;26.84;45.12;101243.00;5032552;28;20474;-65
2021/06/11 10:44:36;;;;;;;1.67;1.43;;;;;;;26.64;44.81;101245.34;5032903;28;20428;-65
2021/06/11 10:47:24;;;;;;;2.20;1.40;;;;;;;26.82;44.37;101240.59;5033163;28;20439;-65
2021/06/11 10:50:13;;;;;;;1.13;1.00;;;;;;;26.95;44.59;101251.34;5026592;28;20462;-65
2021/06/11 10:52:42;;;;;;;1.20;1.10;;;;;;;27.08;44.39;101242.19;5027714;28;20475;-64
2021/06/11 10:55:50;;;;;;;1.60;1.50;;;;;;;27.09;43.89;101234.66;5032778;28;20447;-65
2021/06/11 10:58:27;;;;;;;1.90;1.27;;;;;;;27.38;43.86;101246.56;5033578;28;21037;-64
2021/06/11 11:00:54;;;;;;;1.40;1.27;;;;;;;27.62;45.08;101242.13;5036647;28;20887;-65
2021/06/11 11:03:30;;;;;;;1.53;1.33;;;;;;;27.84;42.32;101240.09;5036094;28;20439;-65
2021/06/11 11:05:56;;;;;;;1.73;1.47;;;;;;;28.04;43.30;101237.63;5036514;28;20435;-65
2021/06/11 11:08:22;;;;;;;1.97;1.77;;;;;;;28.13;43.53;101238.00;5036678;28;20443;-64
2021/06/11 11:10:52;;;;;;;1.63;1.53;;;;;;;27.99;43.36;101246.41;5036363;28;20467;-65
2021/06/11 11:13:20;;;;;;;1.50;1.13;;;;;;;27.69;42.70;101244.09;5036037;28;20427;-64
2021/06/11 11:15:48;;;;;;;1.33;1.17;;;;;;;27.56;43.83;101246.53;5036343;28;20454;-64
2021/06/11 11:18:16;;;;;;;1.20;1.10;;;;;;;27.77;44.28;101245.72;5036067;28;20533;-64
2021/06/11 11:20:43;;;;;;;1.40;1.20;;;;;;;28.31;42.82;101237.91;5036153;28;20451;-65
2021/06/11 11:23:11;;;;;;;1.00;0.90;;;;;;;28.97;40.52;101240.66;5036116;28;20446;-64
2021/06/11 11:25:37;;;;;;;1.50;1.40;;;;;;;28.93;40.77;101242.66;5036140;28;20495;-65
2021/06/11 11:28:07;;;;;;;1.60;1.40;;;;;;;28.76;42.02;101236.00;5035875;28;20967;-64